首页
METAR-TAF:

METAR-TAF

机场 :

漢班托塔國際機場

汉班托塔, 斯里兰卡

纬度: 06-17-20N, 经度: 81-07-25E, 海拔: 48米

当前天气观测

该预报发布于1小时和15分钟前的13:10 UTC
风速8节,风向西南
温度 28°C
湿度 84%
气压 1008 hPa
能见度10公里或以上
少量云层高于1800英尺

METAR: VCRI 171310Z 23008KT 9999 FEW018 28/25 Q1008 NOSIG

时间: 19:55 (14:25 UTC)

预报

该预报发布于9小时和25分钟前的05:00 UTC
预报有效从17日的 06点(UTC)到 18日的 12点(UTC)
风速15节,风向西,有时为25节阵风
能见度10公里或以上
散云层高于1800英尺
成为
从 17日的 15点(UTC)到 17日的 17点(UTC)
风速7节,风向西
成为
从 18日的 02点(UTC)到 18日的 04点(UTC)
风速15节,风向西,有时为25节阵风

TAF: VCRI 170500Z 1706/1812 26015G25KT 9999 SCT018 TX34/1707Z TN25/1800Z BECMG 1715/1717 26007KT BECMG 1802/1804 26015G25KT

超过4000个机场的气象观测和天气预报(METAR&TAF报告)。

可查询的气象台以黄色和红色小点在地图上表示。

将鼠标移到小点上方,可查看气象台名称。

然后点击查看天气观测和预报。

如需切换地图:点击带黑十字的绿色按钮放大地图;点击带横线的绿色按钮缩小地图;或者点击绿色箭头查看邻近地区的地图。


METAR-TAF: